Normanna, Texas
Current Conditions -  °F | °C
As of 3:35 PM on Friday 24 Oct 2014 (Local Time) from KBEA Reporting Station
Scattered Clouds Scattered Clouds  
Wind Chill: 86°   Ceiling: Unl
Heat Index: 86°   Visibility: 10mi
Dew Point: 55°   Wind: 5mph
Humidity: 35%   Direction: 50°NE
Pressure: 30.08"   Gusts: NA
Location:  28.53°N, 97.78°W
Report Text: KBEA 242035Z AUTO 05004KT 10SM SCT060 30/13 A3008 RMK AO2 T03020130
Loading
Personal Weather Stations






























Interactive Weather Map New forecast layout! Learn more

10-Day Weather Forecast

Advertisements
Track Severe Weather on mobile